Decoded Metar for EIDW (DUBLIN in IRELAND) (IATA:DUB) | Meteo·Mobile Aviation Weather
aviador You're here:

EIDW Decoded Metar

DUBLIN in IRELAND
Report Time2019-01-19 05:30:00
UTC Time2019-01-19 05:55:22
Flight Rules ifr IFR
Wind260° at 04 kt
W.Decomp.*RWY 28: 3.8 kt HW 1.1 kt LCW
RWY 34: 1.0 kt HW 3.9 kt LCW
W.Rank260° ranks 2
Current wind is below 260° avg. (13.6)
Visibility9999 m
Phenomena:N/A
Clouds:Scattered 004 Hf
Broken 006 Hf
Overcast 008 Hf
Expected CloudBase > 400 ft AGL from Temp-Dew spread
Ceiling600 ft
Temp06°C (ISA -9)
Dew Point05°C (93% RH)
AAT3.4°C
QNH1003 hPa
Density Alt-325 ft
Elevation242 ft
Report Wrong Elevation
Raw Report
METAR EIDW 190530Z 26004KT 9999 -RADZ SCT004 BKN006 OVC008 06/05 Q1003
NOSIG=

Extra information for EIDW:More info

Metar Taf Metar & Taf Last 4 Metars F.Rules Stats Wind Profile Meteogram Temp Stats Airport Information Weather charts Add Link Nearby VenuesMetar ALERT Operation Metar Decoded Social comments